Time;durP1;ratioP1;P1;durP2;ratioP2;P2;SDS_P1;SDS_P2;PMS_P1;PMS_P2;Temp;Humidity;BMP_temperature;BMP_pressure;BME280_temperature;BME280_humidity;BME280_pressure;Samples;Min_cycle;Max_cycle;Signal;HPM_P1;HPM_P2
2022/07/29 00:00:40;;;;;;;70.10;63.50;;;;;;;20.08;100.00;101110.19;5047763;28;20485;-79
2022/07/29 00:03:07;;;;;;;55.95;50.30;;;;;;;20.18;100.00;101122.13;5036359;28;20068;-81
2022/07/29 00:05:34;;;;;;;80.05;73.10;;;;;;;20.38;100.00;101111.44;5044905;28;20056;-79
2022/07/29 00:08:00;;;;;;;47.17;42.33;;;;;;;20.18;100.00;101114.03;5044508;28;20045;-81
2022/07/29 00:10:29;;;;;;;49.28;44.50;;;;;;;19.94;100.00;101109.03;5044978;28;20435;-81
2022/07/29 00:12:55;;;;;;;50.50;45.30;;;;;;;19.96;100.00;101114.97;5041560;28;20080;-79
2022/07/29 00:15:22;;;;;;;54.88;49.67;;;;;;;20.09;100.00;101117.22;5043762;28;20401;-81
2022/07/29 00:17:50;;;;;;;54.20;48.85;;;;;;;20.18;100.00;101119.41;5042445;28;20049;-80
2022/07/29 00:20:17;;;;;;;52.28;47.03;;;;;;;20.34;100.00;101126.53;5045866;28;20064;-82
2022/07/29 00:22:44;;;;;;;56.22;50.80;;;;;;;20.31;100.00;101116.28;5044582;28;20040;-81
2022/07/29 00:25:13;;;;;;;63.22;57.25;;;;;;;20.09;100.00;101121.78;5047554;28;20041;-80
2022/07/29 00:27:41;;;;;;;55.50;50.20;;;;;;;19.84;100.00;101117.03;5045736;28;20474;-80
2022/07/29 00:30:09;;;;;;;66.95;60.72;;;;;;;20.21;100.00;101116.19;5036418;28;20045;-80
2022/07/29 00:32:36;;;;;;;63.42;57.92;;;;;;;20.23;100.00;101117.56;5045055;28;20060;-79
2022/07/29 00:37:47;;;;;;;56.38;50.83;;;;;;;19.61;100.00;101120.88;5045780;28;20068;-80
2022/07/29 00:40:15;;;;;;;57.85;52.65;;;;;;;19.66;100.00;101126.31;5046111;28;20049;-80
2022/07/29 00:42:47;;;;;;;69.53;63.53;;;;;;;19.95;100.00;101139.50;5049361;28;20084;-80
2022/07/29 00:45:15;;;;;;;58.53;52.83;;;;;;;20.10;100.00;101140.41;5051189;28;20405;-78
2022/07/29 00:47:43;;;;;;;59.40;53.60;;;;;;;20.03;100.00;101128.22;5046109;28;20441;-80
2022/07/29 00:50:12;;;;;;;69.32;62.50;;;;;;;20.04;100.00;101117.19;5041847;28;20048;-80
2022/07/29 00:52:41;;;;;;;57.50;51.70;;;;;;;19.99;100.00;101116.34;5040943;28;20041;-81
2022/07/29 00:55:10;;;;;;;54.22;48.88;;;;;;;19.98;100.00;101120.09;5046139;28;20064;-81
2022/07/29 00:57:37;;;;;;;57.40;51.90;;;;;;;20.00;100.00;101116.09;5045701;28;20068;-80
2022/07/29 01:00:08;;;;;;;56.15;50.85;;;;;;;19.97;100.00;101115.75;5048002;28;20037;-81
2022/07/29 01:02:35;;;;;;;52.35;47.00;;;;;;;19.98;100.00;101114.72;5043266;28;20060;-81
2022/07/29 01:05:02;;;;;;;66.60;60.60;;;;;;;19.36;100.00;101111.47;5049413;28;20041;-81
2022/07/29 01:07:30;;;;;;;54.45;49.33;;;;;;;19.65;100.00;101117.41;5044987;28;20494;-79
2022/07/29 01:09:59;;;;;;;54.80;49.72;;;;;;;19.52;100.00;101117.00;5047070;28;20063;-79
2022/07/29 01:12:28;;;;;;;61.30;56.05;;;;;;;19.71;100.00;101115.59;5046611;28;20068;-79
2022/07/29 01:14:57;;;;;;;57.75;52.75;;;;;;;19.77;100.00;101108.34;5040836;28;20052;-79
2022/07/29 01:17:29;;;;;;;56.75;51.03;;;;;;;19.69;100.00;101101.53;5045975;28;20045;-81
2022/07/29 01:20:03;;;;;;;51.35;46.33;;;;;;;19.54;100.00;101104.09;5040205;28;20049;-78
2022/07/29 01:22:43;;;;;;;54.60;49.28;;;;;;;19.25;100.00;101101.69;5037441;28;20055;-78
2022/07/29 01:25:38;;;;;;;56.83;51.58;;;;;;;19.28;100.00;101105.75;5045005;28;20057;-80
2022/07/29 01:28:24;;;;;;;80.43;73.55;;;;;;;19.38;100.00;101101.25;5047583;28;20061;-79
2022/07/29 01:30:54;;;;;;;46.53;42.22;;;;;;;19.45;100.00;101098.34;5048547;28;20060;-82
2022/07/29 01:36:15;;;;;;;53.92;48.85;;;;;;;19.29;100.00;101104.66;5042965;28;20044;-81
2022/07/29 01:38:44;;;;;;;52.67;47.47;;;;;;;18.91;100.00;101109.09;5041261;28;20046;-80
2022/07/29 01:41:16;;;;;;;64.03;58.55;;;;;;;18.82;100.00;101108.75;5037888;28;20481;-81
2022/07/29 01:43:50;;;;;;;54.90;49.78;;;;;;;18.99;100.00;101104.09;5047764;28;20049;-81
2022/07/29 01:46:25;;;;;;;53.92;48.97;;;;;;;18.97;100.00;101110.78;5044322;28;20049;-79
2022/07/29 01:48:58;;;;;;;52.17;46.72;;;;;;;18.71;100.00;101109.66;5045883;28;20045;-78
2022/07/29 01:51:31;;;;;;;61.92;56.33;;;;;;;19.20;100.00;101107.00;5046202;28;20421;-79
2022/07/29 01:54:05;;;;;;;53.70;48.80;;;;;;;18.90;100.00;101108.28;5044554;28;20049;-78
2022/07/29 01:56:33;;;;;;;64.45;59.05;;;;;;;19.18;100.00;101106.44;5044157;28;20123;-81
2022/07/29 01:59:02;;;;;;;61.50;56.22;;;;;;;19.28;100.00;101109.25;5042903;28;20049;-81
2022/07/29 02:01:32;;;;;;;49.90;45.47;;;;;;;18.92;100.00;101105.38;5161000;23;20049;-88
2022/07/29 02:04:00;;;;;;;48.92;44.22;;;;;;;18.85;100.00;101112.78;5080844;28;20055;-89
2022/07/29 02:06:29;;;;;;;64.63;59.05;;;;;;;18.85;100.00;101110.09;5083907;28;20050;-88
2022/07/29 02:08:58;;;;;;;60.80;55.45;;;;;;;18.84;100.00;101109.28;5077672;28;20048;-87
2022/07/29 02:11:26;;;;;;;65.25;59.53;;;;;;;18.97;100.00;101100.84;5089007;28;20051;-88
2022/07/29 02:13:56;;;;;;;62.80;57.17;;;;;;;19.05;100.00;101107.66;5081272;28;20044;-91
2022/07/29 02:16:28;;;;;;;55.08;49.88;;;;;;;18.64;100.00;101107.16;5081728;28;20071;-90
2022/07/29 02:19:12;;;;;;;;;;;;;;;18.71;100.00;101106.97;5081492;28;20109;-89
2022/07/29 02:21:42;;;;;;;;;;;;;;;18.89;100.00;101106.69;5085612;28;20449;-89
2022/07/29 02:24:17;;;;;;;60.05;54.97;;;;;;;19.03;100.00;101096.31;5082772;28;19926;-90
2022/07/29 02:26:50;;;;;;;51.88;47.10;;;;;;;18.69;100.00;101098.31;5085527;28;20051;-91
2022/07/29 02:29:38;;;;;;;55.03;49.88;;;;;;;18.58;100.00;101099.25;5086089;28;20040;-90
2022/07/29 02:32:14;;;;;;;50.28;45.53;;;;;;;18.48;100.00;101099.94;5081671;28;20048;-90
2022/07/29 02:34:45;;;;;;;56.75;51.75;;;;;;;18.93;100.00;101098.91;5083394;28;20044;-90
2022/07/29 02:37:17;;;;;;;48.70;44.05;;;;;;;18.49;100.00;101109.66;5086025;28;20046;-91
2022/07/29 02:39:45;;;;;;;;;;;;;;;18.47;100.00;101099.13;5079215;28;20059;-88
2022/07/29 02:42:16;;;;;;;46.25;42.00;;;;;;;18.74;100.00;101091.16;5082528;28;19920;-88
2022/07/29 02:44:47;;;;;;;49.45;44.67;;;;;;;18.82;100.00;101100.69;5079056;28;20056;-88
2022/07/29 02:47:28;;;;;;;49.15;44.88;;;;;;;19.07;100.00;101102.03;5084426;28;20044;-90
2022/07/29 02:50:10;;;;;;;48.78;44.67;;;;;;;18.85;100.00;101104.72;5081497;28;20052;-90
2022/07/29 02:52:51;;;;;;;46.70;42.80;;;;;;;19.20;100.00;101107.81;5074586;28;20090;-90
2022/07/29 02:55:24;;;;;;;54.08;49.38;;;;;;;18.70;100.00;101114.22;5081428;28;20077;-89
2022/07/29 02:57:54;;;;;;;;;;;;;;;19.04;100.00;101119.50;5084732;28;20044;-89
2022/07/29 03:00:24;;;;;;;43.85;40.05;;;;;;;18.67;100.00;101125.50;5078139;28;19927;-89
2022/07/29 03:03:00;;;;;;;41.85;38.35;;;;;;;18.85;100.00;101116.31;5058916;28;20087;-88
2022/07/29 03:05:33;;;;;;;43.92;40.47;;;;;;;19.07;100.00;101120.88;5070131;28;20064;-90
2022/07/29 03:08:03;;;;;;;41.25;37.75;;;;;;;18.72;100.00;101125.53;5064067;28;20040;-88
2022/07/29 03:10:31;;;;;;;39.33;35.92;;;;;;;18.58;100.00;101124.28;5066570;28;20040;-88
2022/07/29 03:12:59;;;;;;;39.85;36.45;;;;;;;18.25;100.00;101125.19;5068386;28;20060;-88
2022/07/29 03:15:27;;;;;;;41.58;38.25;;;;;;;18.03;100.00;101139.38;5068415;28;20052;-88
2022/07/29 03:17:55;;;;;;;43.15;39.53;;;;;;;18.53;100.00;101137.66;5061945;28;20048;-88
2022/07/29 03:20:23;;;;;;;41.83;38.22;;;;;;;18.67;100.00;101141.63;5066387;28;20041;-89
2022/07/29 03:22:51;;;;;;;41.30;37.63;;;;;;;18.75;100.00;101135.03;5068381;28;20399;-88
2022/07/29 03:25:20;;;;;;;42.50;38.72;;;;;;;18.82;100.00;101135.66;5069673;28;20398;-89
2022/07/29 03:27:48;;;;;;;42.13;38.53;;;;;;;18.64;100.00;101133.22;5066526;28;20135;-90
2022/07/29 03:30:16;;;;;;;41.40;37.28;;;;;;;18.68;100.00;101132.50;5066986;28;20052;-89
2022/07/29 03:32:43;;;;;;;40.17;36.75;;;;;;;18.77;100.00;101140.97;5072818;28;20060;-90
2022/07/29 03:35:10;;;;;;;42.58;39.15;;;;;;;18.72;100.00;101138.19;5068184;28;20041;-90
2022/07/29 03:37:37;;;;;;;42.38;38.75;;;;;;;18.63;100.00;101140.47;5061960;28;20131;-91
2022/07/29 03:40:09;;;;;;;41.08;37.80;;;;;;;18.86;100.00;101136.78;5066561;28;20053;-89
2022/07/29 03:42:40;;;;;;;40.88;37.53;;;;;;;18.51;100.00;101142.47;5062204;28;20075;-88
2022/07/29 03:45:11;;;;;;;41.13;37.28;;;;;;;18.56;100.00;101144.44;5066103;28;20059;-88
2022/07/29 03:47:41;;;;;;;42.15;38.15;;;;;;;18.49;100.00;101150.81;5060767;28;20051;-88
2022/07/29 03:50:11;;;;;;;41.45;38.13;;;;;;;18.73;100.00;101147.94;5060636;28;20045;-88
2022/07/29 03:52:38;;;;;;;41.22;38.03;;;;;;;18.88;100.00;101145.44;5066705;28;20142;-88
2022/07/29 03:55:09;;;;;;;39.15;36.05;;;;;;;18.85;100.00;101150.47;5066817;28;20076;-88
2022/07/29 03:57:38;;;;;;;41.25;38.08;;;;;;;19.11;100.00;101148.91;5066166;28;20118;-89
2022/07/29 04:00:07;;;;;;;40.75;37.55;;;;;;;19.23;100.00;101150.38;5066673;28;20044;-88
2022/07/29 04:02:35;;;;;;;41.15;37.55;;;;;;;19.06;100.00;101136.19;5057035;28;20060;-89
2022/07/29 04:05:02;;;;;;;42.83;39.38;;;;;;;19.20;100.00;101147.38;5058904;28;20056;-88
2022/07/29 04:07:29;;;;;;;40.83;37.28;;;;;;;19.21;100.00;101146.31;5064536;28;20045;-88
2022/07/29 04:09:56;;;;;;;41.33;37.47;;;;;;;19.33;100.00;101143.47;5065789;28;20049;-88
2022/07/29 04:12:24;;;;;;;42.20;38.80;;;;;;;19.41;100.00;101156.50;5065440;28;20041;-88
2022/07/29 04:14:51;;;;;;;40.17;36.83;;;;;;;19.41;100.00;101149.22;5062283;28;20578;-89
2022/07/29 04:17:18;;;;;;;39.47;36.08;;;;;;;19.35;100.00;101152.13;5067007;28;20048;-89
2022/07/29 04:19:45;;;;;;;44.22;40.55;;;;;;;19.48;100.00;101151.72;5068104;28;20060;-88
2022/07/29 04:22:12;;;;;;;40.47;37.28;;;;;;;19.59;100.00;101156.13;5065254;28;20041;-88
2022/07/29 04:24:38;;;;;;;41.47;37.92;;;;;;;19.62;100.00;101149.44;5064565;28;20048;-88
2022/07/29 04:27:05;;;;;;;40.97;37.63;;;;;;;19.72;100.00;101162.19;5062167;28;20041;-88
2022/07/29 04:29:34;;;;;;;39.70;36.55;;;;;;;19.65;100.00;101154.34;5063239;28;20060;-89
2022/07/29 04:32:00;;;;;;;39.17;36.13;;;;;;;19.71;100.00;101149.81;5065304;28;20520;-89
2022/07/29 04:34:27;;;;;;;38.00;35.15;;;;;;;19.76;100.00;101158.75;5068936;28;20052;-89
2022/07/29 04:36:54;;;;;;;37.92;34.72;;;;;;;19.80;100.00;101153.66;5065785;28;20040;-89
2022/07/29 04:39:21;;;;;;;39.03;35.83;;;;;;;19.81;100.00;101157.97;5066302;28;20532;-89
2022/07/29 04:41:49;;;;;;;38.55;35.65;;;;;;;20.16;100.00;101156.63;5065827;28;20441;-89
2022/07/29 04:44:15;;;;;;;43.95;40.50;;;;;;;20.23;100.00;101157.22;5064293;28;20489;-89
2022/07/29 04:46:44;;;;;;;41.33;38.42;;;;;;;20.29;100.00;101156.16;5064321;28;20044;-89
2022/07/29 04:49:11;;;;;;;39.22;35.90;;;;;;;20.14;100.00;101162.28;5062277;28;20041;-89
2022/07/29 04:51:38;;;;;;;39.63;36.55;;;;;;;20.13;100.00;101166.84;5065510;28;20056;-89
2022/07/29 04:54:05;;;;;;;38.22;35.03;;;;;;;20.23;100.00;101166.09;5065117;28;20055;-88
2022/07/29 04:56:32;;;;;;;38.83;35.70;;;;;;;20.49;100.00;101167.09;5063933;28;20041;-88
2022/07/29 04:58:58;;;;;;;54.28;49.20;;;;;;;20.54;100.00;101160.94;5061806;28;20045;-89
2022/07/29 05:01:25;;;;;;;44.42;40.58;;;;;;;20.70;100.00;101168.03;5064610;28;20072;-89
2022/07/29 05:03:54;;;;;;;69.07;62.38;;;;;;;20.94;100.00;101173.03;5070647;28;20048;-89
2022/07/29 05:06:20;;;;;;;71.38;64.20;;;;;;;20.85;100.00;101175.41;5063983;28;20453;-89
2022/07/29 05:08:47;;;;;;;74.88;66.95;;;;;;;20.97;100.00;101170.59;5062204;28;20048;-89
2022/07/29 05:11:14;;;;;;;57.60;52.25;;;;;;;21.03;100.00;101174.94;5062775;28;20048;-89
2022/07/29 05:13:41;;;;;;;57.10;51.78;;;;;;;21.15;100.00;101179.28;5061501;28;20045;-88
2022/07/29 05:16:09;;;;;;;56.65;51.85;;;;;;;21.32;100.00;101170.97;5063528;28;20098;-88
2022/07/29 05:18:36;;;;;;;43.85;40.40;;;;;;;21.28;100.00;101162.59;5068681;28;20052;-89
2022/07/29 05:21:04;;;;;;;44.67;40.22;;;;;;;21.52;100.00;101164.84;5062220;28;20056;-89
2022/07/29 05:23:31;;;;;;;40.55;37.13;;;;;;;21.51;100.00;101166.69;5062579;28;20047;-89
2022/07/29 05:25:58;;;;;;;38.03;35.13;;;;;;;21.58;100.00;101166.47;5061105;28;20055;-89
2022/07/29 05:28:25;;;;;;;37.83;34.75;;;;;;;21.61;100.00;101166.72;5060955;28;20056;-88
2022/07/29 05:30:52;;;;;;;40.65;36.78;;;;;;;21.82;100.00;101167.56;5061553;28;20421;-89
2022/07/29 05:33:19;;;;;;;38.92;35.30;;;;;;;22.01;100.00;101170.53;5070135;28;20048;-89
2022/07/29 05:35:45;;;;;;;37.00;33.78;;;;;;;21.87;100.00;101172.13;5063812;28;20059;-88
2022/07/29 05:38:14;;;;;;;35.88;32.90;;;;;;;22.18;100.00;101173.78;5060636;28;20068;-89
2022/07/29 05:40:41;;;;;;;37.25;34.17;;;;;;;22.44;100.00;101170.22;5060364;28;20048;-88
2022/07/29 05:43:07;;;;;;;37.30;34.55;;;;;;;22.54;100.00;101171.00;5065021;28;20056;-88
2022/07/29 05:45:34;;;;;;;35.25;32.50;;;;;;;23.02;100.00;101165.97;5064329;28;20053;-89
2022/07/29 05:48:01;;;;;;;29.77;27.98;;;;;;;23.53;100.00;101162.97;5054067;28;20059;-89
2022/07/29 05:50:28;;;;;;;29.55;27.58;;;;;;;23.60;100.00;101162.66;5059611;28;20048;-88
2022/07/29 05:52:55;;;;;;;28.83;26.92;;;;;;;23.74;100.00;101144.66;5061985;28;20048;-89
2022/07/29 05:55:23;;;;;;;29.98;27.88;;;;;;;23.79;100.00;101154.69;5059667;28;20043;-89
2022/07/29 05:57:50;;;;;;;29.75;27.73;;;;;;;23.98;100.00;101157.50;5064757;28;20056;-88
2022/07/29 06:00:17;;;;;;;32.15;29.33;;;;;;;24.44;100.00;101159.78;5064287;28;20041;-89
2022/07/29 06:02:44;;;;;;;31.30;28.95;;;;;;;24.59;100.00;101162.31;5063563;28;20053;-89
2022/07/29 06:05:11;;;;;;;30.80;28.42;;;;;;;24.64;100.00;101158.75;5057875;28;20051;-89
2022/07/29 06:07:38;;;;;;;30.80;28.55;;;;;;;24.87;100.00;101162.53;5061565;28;20049;-89
2022/07/29 06:10:06;;;;;;;31.08;28.80;;;;;;;25.13;100.00;101157.59;5065871;28;20044;-88
2022/07/29 06:12:34;;;;;;;28.17;26.38;;;;;;;24.90;100.00;101153.78;5053878;28;20056;-89
2022/07/29 06:15:01;;;;;;;28.85;26.95;;;;;;;25.25;100.00;101152.53;5053555;28;20041;-89
2022/07/29 06:17:28;;;;;;;28.02;26.13;;;;;;;25.36;100.00;101154.00;5053269;28;20053;-89
2022/07/29 06:19:54;;;;;;;29.08;27.00;;;;;;;25.79;100.00;101156.59;5058486;28;20055;-89
2022/07/29 06:22:21;;;;;;;28.88;26.98;;;;;;;25.24;100.00;101159.09;5058438;28;20052;-90
2022/07/29 06:24:48;;;;;;;29.40;26.90;;;;;;;25.56;100.00;101152.88;5062542;28;20552;-88
2022/07/29 06:27:16;;;;;;;28.40;26.38;;;;;;;25.76;100.00;101157.19;5062462;28;20502;-89
2022/07/29 06:29:44;;;;;;;28.13;26.27;;;;;;;25.70;100.00;101160.28;5062538;28;20118;-90
2022/07/29 06:32:11;;;;;;;27.45;25.27;;;;;;;25.98;100.00;101161.19;5059918;28;20045;-90
2022/07/29 06:34:38;;;;;;;26.75;24.90;;;;;;;26.23;100.00;101166.22;5059753;28;20056;-89
2022/07/29 06:37:07;;;;;;;28.70;26.30;;;;;;;26.29;100.00;101169.63;5069651;28;20047;-88
2022/07/29 06:39:36;;;;;;;27.77;25.83;;;;;;;26.23;100.00;101163.47;5068262;28;20052;-89
2022/07/29 06:42:03;;;;;;;27.15;25.40;;;;;;;26.47;100.00;101154.31;5060520;28;20048;-89
2022/07/29 06:44:29;;;;;;;26.15;24.50;;;;;;;26.28;100.00;101154.41;5059984;28;20059;-89
2022/07/29 06:46:58;;;;;;;26.63;24.88;;;;;;;26.42;100.00;101157.94;5058234;28;20139;-89
2022/07/29 06:49:25;;;;;;;27.33;25.13;;;;;;;26.77;100.00;101158.34;5061874;28;20052;-90
2022/07/29 06:51:52;;;;;;;27.00;25.30;;;;;;;26.51;100.00;101152.63;5056855;28;20041;-89
2022/07/29 06:54:19;;;;;;;27.80;25.80;;;;;;;26.90;100.00;101156.72;5061546;28;20044;-89
2022/07/29 06:56:47;;;;;;;26.88;25.02;;;;;;;27.20;100.00;101155.28;5062434;28;20045;-90
2022/07/29 06:59:14;;;;;;;26.42;24.63;;;;;;;27.04;100.00;101162.16;5059710;28;20087;-89
2022/07/29 07:01:43;;;;;;;27.30;25.20;;;;;;;27.03;100.00;101153.19;5060887;28;20072;-89
2022/07/29 07:04:12;;;;;;;26.75;24.88;;;;;;;27.04;100.00;101162.16;5056256;28;20048;-89
2022/07/29 07:06:40;;;;;;;27.25;25.17;;;;;;;27.38;100.00;101154.34;5060028;28;20098;-89
2022/07/29 07:09:07;;;;;;;28.42;26.15;;;;;;;27.61;100.00;101159.78;5063462;28;20055;-90
2022/07/29 07:11:34;;;;;;;27.08;25.27;;;;;;;27.53;100.00;101163.25;5061986;28;20049;-90
2022/07/29 07:14:01;;;;;;;26.77;24.85;;;;;;;27.70;100.00;101157.91;5062067;28;20056;-89
2022/07/29 07:16:27;;;;;;;26.25;24.33;;;;;;;27.89;100.00;101155.00;5063810;28;20044;-92
2022/07/29 07:18:54;;;;;;;26.25;24.65;;;;;;;28.04;100.00;101149.16;5058925;28;20533;-91
2022/07/29 07:21:23;;;;;;;25.90;24.10;;;;;;;27.82;100.00;101152.72;5060041;28;20049;-90
2022/07/29 07:23:49;;;;;;;26.48;24.77;;;;;;;27.91;100.00;101146.53;5066059;28;20570;-91
2022/07/29 07:26:16;;;;;;;26.55;24.50;;;;;;;27.98;100.00;101144.16;5058774;28;20051;-91
2022/07/29 07:28:43;;;;;;;27.08;25.30;;;;;;;28.04;100.00;101151.88;5058930;28;20057;-91
2022/07/29 07:31:10;;;;;;;26.60;24.83;;;;;;;28.36;100.00;101139.03;5060772;28;20049;-90
2022/07/29 07:33:37;;;;;;;27.88;26.17;;;;;;;28.28;97.63;101139.78;5061792;28;20041;-91
2022/07/29 07:36:04;;;;;;;28.65;26.77;;;;;;;28.35;96.06;101140.13;5062877;28;20045;-90
2022/07/29 07:38:32;;;;;;;27.75;26.02;;;;;;;28.73;90.63;101140.44;5067375;28;20055;-91
2022/07/29 07:40:59;;;;;;;27.92;25.98;;;;;;;28.77;87.23;101135.16;5059280;28;20540;-90
2022/07/29 07:43:26;;;;;;;27.42;25.73;;;;;;;28.97;89.12;101126.34;5065326;28;20048;-91
2022/07/29 07:45:53;;;;;;;28.80;26.80;;;;;;;28.95;92.84;101134.03;5065497;28;20041;-91
2022/07/29 07:48:20;;;;;;;28.65;26.75;;;;;;;29.09;79.07;101125.72;5063526;28;20128;-90
2022/07/29 07:50:49;;;;;;;30.02;28.13;;;;;;;29.26;72.87;101132.31;5068594;28;20045;-90
2022/07/29 07:53:16;;;;;;;28.83;26.90;;;;;;;29.16;74.75;101130.72;5068863;28;20127;-91
2022/07/29 07:55:44;;;;;;;28.45;26.35;;;;;;;29.06;70.44;101139.25;5066474;28;20044;-91
2022/07/29 07:58:11;;;;;;;29.52;27.52;;;;;;;29.36;74.72;101130.06;5064915;28;20124;-90
2022/07/29 08:00:38;;;;;;;29.23;27.20;;;;;;;29.35;71.03;101133.13;5066379;28;20044;-91
2022/07/29 08:03:05;;;;;;;29.38;27.45;;;;;;;29.37;70.00;101130.88;5063214;28;20494;-91
2022/07/29 08:05:32;;;;;;;29.50;27.52;;;;;;;29.53;74.04;101137.44;5064175;28;20515;-91
2022/07/29 08:07:59;;;;;;;29.02;27.02;;;;;;;29.41;66.57;101135.38;5061401;28;20102;-91
2022/07/29 08:13:12;;;;;;;29.50;27.50;;;;;;;29.60;60.97;101126.03;5063696;28;20047;-90
2022/07/29 08:15:42;;;;;;;29.40;27.50;;;;;;;29.63;65.02;101141.84;5066907;28;20094;-91
2022/07/29 08:18:10;;;;;;;28.15;25.98;;;;;;;29.62;64.19;101138.28;5064007;28;20049;-90
2022/07/29 08:20:38;;;;;;;29.10;27.10;;;;;;;29.48;62.21;101131.34;5066149;28;20545;-88
2022/07/29 08:23:06;;;;;;;29.08;26.88;;;;;;;29.84;70.28;101120.84;5064909;28;20048;-89
2022/07/29 08:25:33;;;;;;;29.65;27.73;;;;;;;30.20;64.82;101124.25;5065143;28;20045;-91
2022/07/29 08:28:00;;;;;;;29.90;27.65;;;;;;;30.34;67.68;101120.19;5068337;28;20044;-92
2022/07/29 08:30:29;;;;;;;29.40;27.60;;;;;;;30.30;58.72;101129.41;5067089;28;20049;-92
2022/07/29 08:32:56;;;;;;;29.33;27.52;;;;;;;29.81;59.23;101112.50;5066679;28;20132;-91
2022/07/29 08:35:25;;;;;;;29.95;27.85;;;;;;;30.07;57.62;101118.66;5061423;28;20048;-92
2022/07/29 08:37:52;;;;;;;29.70;27.92;;;;;;;30.09;59.67;101121.88;5063322;28;20044;-89
2022/07/29 08:40:23;;;;;;;30.02;28.02;;;;;;;30.16;63.56;101121.38;5061057;28;20051;-90
2022/07/29 08:42:50;;;;;;;30.10;28.40;;;;;;;30.47;68.74;101112.88;5067037;28;20054;-90
2022/07/29 08:45:17;;;;;;;29.05;27.20;;;;;;;30.24;60.25;101117.81;5062952;28;20586;-89
2022/07/29 08:47:46;;;;;;;27.42;25.63;;;;;;;30.28;59.58;101110.53;5060154;28;20056;-90
2022/07/29 08:50:13;;;;;;;29.52;27.63;;;;;;;30.55;61.76;101103.00;5065095;28;20049;-90
2022/07/29 08:52:41;;;;;;;29.40;27.30;;;;;;;30.66;61.23;101106.97;5065535;28;20488;-92
2022/07/29 08:55:10;;;;;;;29.85;27.77;;;;;;;30.49;58.37;101102.38;5060690;28;20127;-91
2022/07/29 08:57:39;;;;;;;29.60;27.70;;;;;;;30.48;58.17;101095.31;5061745;28;20072;-91
2022/07/29 09:00:10;;;;;;;29.05;26.95;;;;;;;30.67;61.93;101094.06;5060949;28;20051;-91
2022/07/29 09:02:41;;;;;;;27.65;25.75;;;;;;;30.62;57.97;101094.25;5062076;28;20610;-90
2022/07/29 09:05:10;;;;;;;27.73;25.40;;;;;;;30.81;58.94;101100.13;5058771;28;20049;-91
2022/07/29 09:07:37;;;;;;;26.83;24.98;;;;;;;30.89;57.57;101080.03;5065025;28;20055;-90
2022/07/29 09:10:06;;;;;;;27.73;25.73;;;;;;;30.98;58.32;101090.94;5060129;28;20041;-91
2022/07/29 09:12:33;;;;;;;28.27;26.48;;;;;;;31.17;60.22;101079.50;5064397;28;20482;-91
2022/07/29 09:15:00;;;;;;;29.23;27.25;;;;;;;31.27;52.48;101090.03;5061706;28;20058;-91
2022/07/29 09:17:44;;;;;;;29.25;27.25;;;;;;;31.20;52.06;101087.84;5064543;28;20056;-89
2022/07/29 09:20:14;;;;;;;28.98;26.88;;;;;;;31.49;55.46;101089.69;5066167;28;20508;-90
2022/07/29 09:22:41;;;;;;;28.88;26.90;;;;;;;31.43;55.36;101084.75;5064084;28;20119;-90
2022/07/29 09:25:08;;;;;;;31.08;28.67;;;;;;;31.55;52.75;101087.53;5059277;28;20143;-89
2022/07/29 09:27:35;;;;;;;31.10;29.05;;;;;;;31.51;51.37;101088.56;5064854;28;20053;-92
2022/07/29 09:30:06;;;;;;;30.33;28.23;;;;;;;31.88;52.11;101081.97;5065204;28;20056;-92
2022/07/29 09:32:34;;;;;;;31.30;29.15;;;;;;;31.69;50.88;101087.22;5065826;28;20126;-91
2022/07/29 09:35:19;;;;;;;28.77;26.67;;;;;;;31.92;51.63;101082.94;5058391;28;20044;-91
2022/07/29 09:37:47;;;;;;;31.45;29.45;;;;;;;32.05;49.37;101086.50;5063672;28;20529;-91
2022/07/29 09:40:16;;;;;;;31.40;29.30;;;;;;;32.09;47.93;101073.69;5060771;28;20045;-91
2022/07/29 09:42:43;;;;;;;29.00;27.20;;;;;;;32.20;50.14;101078.72;5062904;28;20506;-92
2022/07/29 09:45:11;;;;;;;30.05;28.15;;;;;;;32.22;50.31;101074.47;5061646;28;20049;-91
2022/07/29 09:47:48;;;;;;;28.67;26.67;;;;;;;32.30;49.25;101070.81;5061594;28;20048;-91
2022/07/29 09:50:15;;;;;;;30.17;28.20;;;;;;;31.39;49.80;101067.38;5067518;28;20043;-91
2022/07/29 09:52:48;;;;;;;30.58;28.58;;;;;;;32.01;51.01;101063.59;5064038;28;20045;-90
2022/07/29 09:55:16;;;;;;;31.42;29.25;;;;;;;32.17;53.30;101060.97;5060689;28;20063;-90
2022/07/29 09:57:43;;;;;;;30.60;28.70;;;;;;;32.39;48.35;101055.00;5060719;28;20105;-90
2022/07/29 10:00:12;;;;;;;29.40;27.30;;;;;;;32.55;47.65;101051.56;5062080;28;20500;-91
2022/07/29 10:02:41;;;;;;;29.25;27.15;;;;;;;32.62;46.43;101062.78;5059287;28;20075;-90
2022/07/29 10:05:18;;;;;;;30.52;28.33;;;;;;;33.12;47.58;101060.69;5065715;28;20068;-90
2022/07/29 10:07:48;;;;;;;31.38;29.35;;;;;;;32.99;42.67;101059.94;5063597;28;20071;-90
2022/07/29 10:10:23;;;;;;;30.95;28.85;;;;;;;32.47;53.90;101053.31;5061061;28;20055;-91
2022/07/29 10:12:56;;;;;;;31.63;29.63;;;;;;;32.83;48.93;101046.09;5060631;28;20059;-91
2022/07/29 10:15:24;;;;;;;31.85;29.73;;;;;;;33.23;44.64;101050.78;5059797;28;20047;-91
2022/07/29 10:17:51;;;;;;;31.77;29.63;;;;;;;33.06;45.26;101049.94;5058609;28;20465;-90
2022/07/29 10:20:19;;;;;;;29.65;27.45;;;;;;;33.77;43.23;101041.16;5067372;28;20553;-92
2022/07/29 10:22:48;;;;;;;29.67;27.50;;;;;;;33.67;42.81;101045.25;5063907;28;20497;-90
2022/07/29 10:25:16;;;;;;;29.13;27.10;;;;;;;33.91;45.54;101038.75;5062475;28;20073;-91
2022/07/29 10:27:43;;;;;;;28.92;26.75;;;;;;;33.90;44.14;101037.16;5062621;28;20053;-91
2022/07/29 10:30:14;;;;;;;31.02;29.02;;;;;;;33.93;47.74;101037.25;5063150;28;20124;-90
2022/07/29 10:33:16;;;;;;;31.73;29.63;;;;;;;33.84;44.27;101033.09;5063094;28;20132;-90
2022/07/29 10:35:55;;;;;;;29.85;27.95;;;;;;;33.65;44.24;101033.78;5061454;28;20500;-91
2022/07/29 10:38:49;;;;;;;29.50;27.45;;;;;;;33.53;42.20;101029.19;5063666;28;20099;-91
2022/07/29 10:41:48;;;;;;;28.42;26.42;;;;;;;33.88;42.77;101018.22;5057543;28;20055;-91
2022/07/29 10:44:18;;;;;;;29.13;27.05;;;;;;;34.29;40.21;101026.28;5058846;28;20503;-91
2022/07/29 10:46:45;;;;;;;28.33;26.50;;;;;;;33.69;39.90;101016.22;5064288;28;20523;-91
2022/07/29 10:49:15;;;;;;;29.75;27.77;;;;;;;34.21;39.35;101011.53;5059939;28;20418;-91
2022/07/29 10:52:04;;;;;;;28.10;26.20;;;;;;;34.22;38.93;101017.84;5063052;28;20048;-90
2022/07/29 10:54:44;;;;;;;27.55;25.38;;;;;;;34.41;42.03;101006.88;5054765;28;20055;-92
2022/07/29 10:57:25;;;;;;;26.83;24.90;;;;;;;34.82;42.50;101012.84;5059839;28;20057;-92
2022/07/29 11:00:13;;;;;;;27.45;25.45;;;;;;;34.33;43.12;101008.66;5059967;28;20106;-92
2022/07/29 11:02:51;;;;;;;28.88;26.88;;;;;;;33.68;42.48;101011.06;5058404;28;20061;-90
2022/07/29 11:05:19;;;;;;;29.15;27.25;;;;;;;33.94;44.08;100999.47;5065570;28;20052;-90
2022/07/29 11:08:19;;;;;;;29.05;27.05;;;;;;;34.45;46.19;100990.38;5061230;28;20049;-91
2022/07/29 11:10:49;;;;;;;30.02;28.13;;;;;;;34.03;45.37;100991.03;5061942;28;20131;-90
2022/07/29 11:13:50;;;;;;;29.67;27.67;;;;;;;33.55;44.48;100984.75;5060270;28;20048;-90
2022/07/29 11:16:17;;;;;;;27.52;25.52;;;;;;;34.32;41.62;100985.00;5060320;28;20478;-91
2022/07/29 11:19:21;;;;;;;28.30;26.20;;;;;;;35.36;40.88;100980.75;5064596;28;20040;-91
2022/07/29 11:21:49;;;;;;;27.73;25.83;;;;;;;35.41;41.31;100981.22;5067169;28;20090;-92
2022/07/29 11:24:19;;;;;;;31.77;29.48;;;;;;;34.72;38.95;100972.84;5064981;28;20044;-91